Zapata, Texas
Current Conditions -  °F | °C
As of 3:35 PM on Saturday 22 Nov 2014 (Local Time) from KAPY Reporting Station
Scattered Clouds Scattered Clouds  
Wind Chill: 83°   Ceiling: Unl
Heat Index: 84°   Visibility: 10mi
Dew Point: 63°   Wind: 7mph
Humidity: 52%   Direction: 170°S
Pressure: 29.71"   Gusts: 17mph
Location:  26.91°N, 99.27°W
Report Text: KAPY 222135Z AUTO 17006G15KT 10SM SCT039 28/17 A2971 RMK AO2 T02810173
Loading
Personal Weather Stations






























Interactive Weather Map New forecast layout! Learn more

10-Day Weather Forecast

Advertisements
Track Severe Weather on mobile